John R Operle — WDB8611 — position and weather

sailwx.info

Track history (hours):
 
Tides and Currents Weather Stations Pressure Air Temp Water Temp Dewpoint Dewpoint Depression Visibility Wind Speed Wind Dir Waves Ship Positions

John R Operle

Owner: INGRAM BARGE COMPANY, Nashville, TN. More information available from US FCC via Universal Licensing System and Coast Guard Vessel Documentation Center.

Last reported at 2017-May-13 22:28 UTC. Time now 2017-May-22 23:09 UTC.
Position N 40°46' W 091°06'.
Warning: this ship's position is 9 days out of date.

Length 48 m; draft 3 m.

Type: Towing. MMSI: 366961510.

Date/timePositionNaut miles runAvg speedWind from/ knotsBaromVisibWave heightAir tempDewpointWater temp
2017-May-13 22:28N 40°46' W 091°06'3 6.3
2017-May-13 22:00N 40°48' W 091°06'3 6.0
2017-May-13 21:30N 40°51' W 091°03'2 4.7
2017-May-13 21:00N 40°53' W 091°02'0 0.3
2017-May-13 20:30N 40°53' W 091°01'0 0.2
2017-May-13 20:00N 40°53' W 091°01'0 0.4
2017-May-13 19:30N 40°53' W 091°01'0 0.4
2017-May-13 19:00N 40°53' W 091°01'1 2.3
2017-May-13 18:30N 40°54' W 091°00'3 6.8
2017-May-13 18:00N 40°57' W 090°57'4 7.7
2017-May-13 17:27N 41°01' W 090°57'3 8.0
2017-May-13 17:00N 41°05' W 090°57'1 0.1
2017-May-12 16:15N 41°03' W 090°57'1 4.7
2017-May-12 15:58N 41°02' W 090°56'2 4.6
2017-May-12 15:30N 41°00' W 090°57'2 3.6
2017-May-12 15:00N 40°58' W 090°58'1 0.7
2017-May-12 14:00N 40°58' W 090°57'3 4.6
2017-May-12 13:28N 40°55' W 090°58'2 4.8
2017-May-12 13:00N 40°54' W 091°00'1 2.7
2017-May-12 12:29N 40°53' W 091°01'0 0.2
2017-May-12 12:00N 40°53' W 091°02'0 0.3
2017-May-12 11:30N 40°53' W 091°02'1 2.2
2017-May-12 11:00N 40°52' W 091°03'0 0.0
2017-May-12 10:29N 40°52' W 091°03'0 0.0
2017-May-12 10:00N 40°52' W 091°03'1 1.7
2017-May-12 09:30N 40°51' W 091°03'2 3.9
2017-May-12 09:00N 40°50' W 091°05'0 0.0
2017-May-12 08:30N 40°50' W 091°05'2 4.9
2017-May-12 08:00N 40°47' W 091°06'5 5.9
2017-May-12 07:10N 40°43' W 091°07'  
2017-May-05 16:17N 40°46' W 091°06'2 8.1
2017-May-05 16:00N 40°48' W 091°06'3 5.7
2017-May-05 15:30N 40°50' W 091°04'1 1.5
2017-May-05 15:00N 40°51' W 091°03'0 0.0
2017-May-05 14:00N 40°51' W 091°03'0 0.3
2017-May-05 13:30N 40°51' W 091°03'0 0.1
2017-May-05 13:00N 40°51' W 091°03'0 0.5
2017-May-05 12:30N 40°51' W 091°03'3 5.5
2017-May-05 12:00N 40°53' W 091°01'4 8.2
2017-May-05 11:30N 40°56' W 090°57'5 9.1
2017-May-05 10:57N 41°01' W 090°57'4 8.0
2017-May-05 10:30N 41°05' W 090°57'5 0.2
2017-May-04 12:05N 41°00' W 090°57'0 6.0
2017-May-04 12:00N 40°60' W 090°57'3 5.5
2017-May-04 11:30N 40°57' W 090°57'2 4.7
2017-May-04 11:00N 40°55' W 090°59'3 5.4
2017-May-04 10:30N 40°53' W 091°01'0 0.3
2017-May-04 10:00N 40°53' W 091°02'0 0.0
2017-May-04 09:30N 40°53' W 091°02'1 2.1
2017-May-04 09:00N 40°52' W 091°03'2 4.3
2017-May-04 08:30N 40°50' W 091°04'1 1.5
2017-May-04 08:00N 40°50' W 091°05'0 0.0
2017-May-04 07:30N 40°50' W 091°05'0 0.0
2017-May-04 07:00N 40°50' W 091°05'0 0.0
2017-May-04 06:30N 40°50' W 091°05'1 2.2
2017-May-04 06:00N 40°49' W 091°06'3 5.9
2017-May-04 05:30N 40°46' W 091°06'  
Track history (hours):
 
Tides and Currents Weather Stations Pressure Air Temp Water Temp Dewpoint Dewpoint Depression Visibility Wind Speed Wind Dir Waves Ship Positions

John R Operle

Owner: INGRAM BARGE COMPANY, Nashville, TN. More information available from US FCC via Universal Licensing System and Coast Guard Vessel Documentation Center.

Last reported at 2017-May-13 22:28 UTC. Time now 2017-May-22 23:09 UTC.
Position N 40°46' W 091°06'.
Warning: this ship's position is 9 days out of date.

Length 48 m; draft 3 m.

Type: Towing. MMSI: 366961510.

Date/timePositionNaut miles runAvg speedWind from/ knotsBaromVisibWave heightAir tempDewpointWater temp
2017-May-13 22:28N 40°46' W 091°06'3 6.3
2017-May-13 22:00N 40°48' W 091°06'3 6.0
2017-May-13 21:30N 40°51' W 091°03'2 4.7
2017-May-13 21:00N 40°53' W 091°02'0 0.3
2017-May-13 20:30N 40°53' W 091°01'0 0.2
2017-May-13 20:00N 40°53' W 091°01'0 0.4
2017-May-13 19:30N 40°53' W 091°01'0 0.4
2017-May-13 19:00N 40°53' W 091°01'1 2.3
2017-May-13 18:30N 40°54' W 091°00'3 6.8
2017-May-13 18:00N 40°57' W 090°57'4 7.7
2017-May-13 17:27N 41°01' W 090°57'3 8.0
2017-May-13 17:00N 41°05' W 090°57'1 0.1
2017-May-12 16:15N 41°03' W 090°57'1 4.7
2017-May-12 15:58N 41°02' W 090°56'2 4.6
2017-May-12 15:30N 41°00' W 090°57'2 3.6
2017-May-12 15:00N 40°58' W 090°58'1 0.7
2017-May-12 14:00N 40°58' W 090°57'3 4.6
2017-May-12 13:28N 40°55' W 090°58'2 4.8
2017-May-12 13:00N 40°54' W 091°00'1 2.7
2017-May-12 12:29N 40°53' W 091°01'0 0.2
2017-May-12 12:00N 40°53' W 091°02'0 0.3
2017-May-12 11:30N 40°53' W 091°02'1 2.2
2017-May-12 11:00N 40°52' W 091°03'0 0.0
2017-May-12 10:29N 40°52' W 091°03'0 0.0
2017-May-12 10:00N 40°52' W 091°03'1 1.7
2017-May-12 09:30N 40°51' W 091°03'2 3.9
2017-May-12 09:00N 40°50' W 091°05'0 0.0
2017-May-12 08:30N 40°50' W 091°05'2 4.9
2017-May-12 08:00N 40°47' W 091°06'5 5.9
2017-May-12 07:10N 40°43' W 091°07'  
2017-May-05 16:17N 40°46' W 091°06'2 8.1
2017-May-05 16:00N 40°48' W 091°06'3 5.7
2017-May-05 15:30N 40°50' W 091°04'1 1.5
2017-May-05 15:00N 40°51' W 091°03'0 0.0
2017-May-05 14:00N 40°51' W 091°03'0 0.3
2017-May-05 13:30N 40°51' W 091°03'0 0.1
2017-May-05 13:00N 40°51' W 091°03'0 0.5
2017-May-05 12:30N 40°51' W 091°03'3 5.5
2017-May-05 12:00N 40°53' W 091°01'4 8.2
2017-May-05 11:30N 40°56' W 090°57'5 9.1
2017-May-05 10:57N 41°01' W 090°57'4 8.0
2017-May-05 10:30N 41°05' W 090°57'5 0.2
2017-May-04 12:05N 41°00' W 090°57'0 6.0
2017-May-04 12:00N 40°60' W 090°57'3 5.5
2017-May-04 11:30N 40°57' W 090°57'2 4.7
2017-May-04 11:00N 40°55' W 090°59'3 5.4
2017-May-04 10:30N 40°53' W 091°01'0 0.3
2017-May-04 10:00N 40°53' W 091°02'0 0.0
2017-May-04 09:30N 40°53' W 091°02'1 2.1
2017-May-04 09:00N 40°52' W 091°03'2 4.3
2017-May-04 08:30N 40°50' W 091°04'1 1.5
2017-May-04 08:00N 40°50' W 091°05'0 0.0
2017-May-04 07:30N 40°50' W 091°05'0 0.0
2017-May-04 07:00N 40°50' W 091°05'0 0.0
2017-May-04 06:30N 40°50' W 091°05'1 2.2
2017-May-04 06:00N 40°49' W 091°06'3 5.9
2017-May-04 05:30N 40°46' W 091°06'  

Dump ship's entire track history